Anthony, WV

8:54 AM EDT on September 05, 2015 (GMT -0400)
Greenbrier Valley | | Change Station
CLOSE
Current Station
Airport
Location: Lewisburg,
Elevation: 2303 ft
Nearby Weather Stations

Elev 2303 ft 37.86 °N, 80.40 °W | Updated 19 minutes ago

Partly Cloudy
Partly Cloudy
66 °F
Feels Like 66 °F
N
4
Wind Variable Wind from North

Today
High -- | Low -- °F
--% Chance of Precip.
Yesterday
High -- | Low -- °F
Precip. -- in
6:54 AM 7:45 PM
Waning Gibbous, 49% visible
Pressure 30.28 in
Visibility 4.0 miles
Clouds Mostly Cloudy 400 ft
Mostly Cloudy 1100 ft
Dew Point 64 °F
Humidity 94%
Rainfall 0.00 in
Snow Depth Not available.
UV 1 out of 12
Pollen 9.30 out of 12
Air Quality Not available.
Flu Activity Not available.
METAR KLWB 051235Z AUTO 01003KT 4SM BR BKN004 BKN011 19/18 A3028 RMK AO2 T01900180
Pressure 30.28 in
Visibility 4.0 miles
Clouds Mostly Cloudy 400 ft
Mostly Cloudy 1100 ft
Dew Point 64 °F
Humidity 94%
Rainfall 0.00 in
Snow Depth Not available.
UV 1 out of 12
Pollen 9.30 out of 12
Air Quality Not available.
Flu Activity Not available.
METAR KLWB 051235Z AUTO 01003KT 4SM BR BKN004 BKN011 19/18 A3028 RMK AO2 T01900180

10-Day Weather Forecast

×

Almanac

Astronomy

Sep. 05, 2015 Rise Set
Actual Time
Civil Twilight
Nautical Twilight
Astronomical Twilight
Moon
Length of Visible Light
Length of Day
Tomorrow will be .
, % of the Moon is Illuminated

Today's Extremes

State Highs State Lows

Community

WunderPhotos

Upload Photos

1,852,454 photos uploaded!

WunderBlogs® & News

Nearby

Air Quality

  Air Quality AQ Index Pollutant
Not available.

Snow Depth

Station Depth Elevation

Earthquake Activity

City Distance Mag. Time & Date
Minimum magnitude displayed is 2.5.

Coastal Water Temperatures

Place Temperature

Stations

Nearby Weather Stations

Station Location Temp. Windchill Dew Point Humidity Wind Precip. Elev Updated Type